createdAt,value
2023-06-19T00:00:22.573Z,100345.13
2023-06-19T00:03:25.368Z,100364.94
2023-06-19T00:06:28.116Z,100356.53
2023-06-19T00:09:30.593Z,100353.06
2023-06-19T00:12:35.378Z,100348.03
2023-06-19T00:15:40.055Z,100356.63
2023-06-19T00:18:43.123Z,100351.03
2023-06-19T00:21:45.691Z,100327.31
2023-06-19T00:24:48.269Z,100356.88
2023-06-19T00:27:50.762Z,100335.47
2023-06-19T00:30:53.247Z,100356.53
2023-06-19T00:33:58.109Z,100352.31
2023-06-19T00:37:01.541Z,100320.72
2023-06-19T00:40:04.715Z,100325.41
2023-06-19T00:43:08.633Z,100348.00
2023-06-19T00:46:12.280Z,100346.22
2023-06-19T00:49:17.058Z,100357.66
2023-06-19T00:52:19.622Z,100325.28
2023-06-19T00:55:29.931Z,100334.25
2023-06-19T00:58:36.428Z,100362.03
2023-06-19T01:01:41.981Z,100339.53
2023-06-19T01:04:44.543Z,100353.75
2023-06-19T01:07:55.880Z,100362.03
2023-06-19T01:11:14.856Z,100364.50
2023-06-19T01:14:27.954Z,100350.19
2023-06-19T01:17:33.394Z,100344.41
2023-06-19T01:20:38.663Z,100337.59
2023-06-19T01:23:44.247Z,100348.13
2023-06-19T01:26:51.366Z,100355.72
2023-06-19T01:29:56.610Z,100360.47
2023-06-19T01:33:12.306Z,100352.75
2023-06-19T01:36:15.890Z,100324.00
2023-06-19T01:39:20.179Z,100340.06
2023-06-19T01:42:22.769Z,100354.34
2023-06-19T01:45:25.481Z,100340.16
2023-06-19T01:48:28.588Z,100344.88
2023-06-19T01:51:31.051Z,100325.53
2023-06-19T01:54:38.154Z,100342.38
2023-06-19T01:57:40.715Z,100350.00
2023-06-19T02:00:45.793Z,100337.66
2023-06-19T02:03:50.804Z,100351.25
2023-06-19T02:06:55.499Z,100332.25
2023-06-19T02:10:02.644Z,100334.41
2023-06-19T02:13:11.328Z,100354.00
2023-06-19T02:16:13.864Z,100357.47
2023-06-19T02:19:18.649Z,100362.00
2023-06-19T02:22:23.218Z,100350.28
2023-06-19T02:25:25.672Z,100343.16
2023-06-19T02:28:28.297Z,100331.94
2023-06-19T02:31:32.938Z,100359.66
2023-06-19T02:34:35.537Z,100352.81
2023-06-19T02:37:38.238Z,100361.44
2023-06-19T02:40:40.738Z,100365.63
2023-06-19T02:43:45.644Z,100367.28
2023-06-19T02:46:50.483Z,100359.44
2023-06-19T02:49:52.960Z,100360.06
2023-06-19T02:52:55.498Z,100342.84
2023-06-19T02:56:00.335Z,100339.84
2023-06-19T02:59:07.575Z,100343.19
2023-06-19T03:02:10.084Z,100357.16
2023-06-19T03:05:17.170Z,100366.97
2023-06-19T03:08:21.885Z,100367.91
2023-06-19T03:11:24.381Z,100346.94
2023-06-19T03:14:27.064Z,100373.44
2023-06-19T03:17:29.609Z,100360.91
2023-06-19T03:20:34.503Z,100366.63
2023-06-19T03:23:39.610Z,100356.84
2023-06-19T03:26:42.105Z,100366.16
2023-06-19T03:29:46.909Z,100366.44
2023-06-19T03:32:54.881Z,100382.81
2023-06-19T03:36:26.492Z,100389.00
2023-06-19T03:39:30.273Z,100355.53
2023-06-19T03:42:41.917Z,100362.44
2023-06-19T03:45:44.714Z,100382.25
2023-06-19T03:48:51.946Z,100364.34
2023-06-19T03:51:55.644Z,100382.47
2023-06-19T03:54:58.234Z,100388.13
2023-06-19T03:58:00.805Z,100380.25
2023-06-19T04:01:04.293Z,100376.63
2023-06-19T04:04:06.847Z,100377.00
2023-06-19T04:07:09.376Z,100357.28
2023-06-19T04:10:12.874Z,100375.03
2023-06-19T04:13:17.852Z,100356.16
2023-06-19T04:16:21.171Z,100374.81
2023-06-19T04:19:24.272Z,100373.41
2023-06-19T04:22:26.767Z,100393.38
2023-06-19T04:25:29.301Z,100383.78
2023-06-19T04:28:32.671Z,100362.13
2023-06-19T04:31:42.940Z,100388.97
2023-06-19T04:34:47.228Z,100367.91
2023-06-19T04:37:50.111Z,100371.59
2023-06-19T04:40:53.137Z,100381.84
2023-06-19T04:43:55.646Z,100371.22
2023-06-19T04:47:02.301Z,100366.31
2023-06-19T04:50:07.611Z,100394.31
2023-06-19T04:53:10.154Z,100399.88
2023-06-19T04:56:12.674Z,100407.41
2023-06-19T04:59:19.319Z,100395.94
2023-06-19T05:02:21.922Z,100400.00
2023-06-19T05:05:24.729Z,100371.06
2023-06-19T05:08:27.450Z,100412.03
2023-06-19T05:11:30.006Z,100400.13
2023-06-19T05:14:32.458Z,100423.69
2023-06-19T05:17:35.001Z,100420.13
2023-06-19T05:20:39.760Z,100415.91
2023-06-19T05:23:42.215Z,100412.50
2023-06-19T05:26:49.382Z,100428.97
2023-06-19T05:29:53.942Z,100429.69
2023-06-19T05:32:58.694Z,100434.69
2023-06-19T05:36:02.310Z,100399.78
2023-06-19T05:39:05.373Z,100432.88
2023-06-19T05:42:08.518Z,100427.34
2023-06-19T05:45:14.376Z,100431.16
2023-06-19T05:48:17.022Z,100426.97
2023-06-19T05:51:24.139Z,100436.06
2023-06-19T05:54:28.896Z,100422.50
2023-06-19T05:57:34.767Z,100429.41
2023-06-19T06:00:37.322Z,100448.72
2023-06-19T06:03:40.436Z,100451.03
2023-06-19T06:06:43.026Z,100442.81
2023-06-19T06:09:45.555Z,100432.97
2023-06-19T06:12:51.179Z,100447.06
2023-06-19T06:15:53.699Z,100454.47
2023-06-19T06:18:58.280Z,100456.94
2023-06-19T06:22:03.179Z,100436.22
2023-06-19T06:25:06.084Z,100440.34
2023-06-19T06:28:08.714Z,100448.38
2023-06-19T06:31:11.199Z,100454.09
2023-06-19T06:34:14.460Z,100457.78
2023-06-19T06:37:23.639Z,100457.50
2023-06-19T06:40:26.464Z,100449.13
2023-06-19T06:43:29.226Z,100449.97
2023-06-19T06:46:34.005Z,100458.47
2023-06-19T06:49:37.598Z,100454.38
2023-06-19T06:52:40.092Z,100459.22
2023-06-19T06:55:45.714Z,100451.47
2023-06-19T06:58:48.267Z,100466.34
2023-06-19T07:01:50.932Z,100468.91
2023-06-19T07:04:53.519Z,100460.69
2023-06-19T07:07:55.985Z,100461.19
2023-06-19T07:10:58.477Z,100463.31
2023-06-19T07:14:00.930Z,100471.31
2023-06-19T07:17:03.653Z,100465.16
2023-06-19T07:20:09.150Z,100471.47
2023-06-19T07:23:12.137Z,100465.44
2023-06-19T07:26:15.208Z,100473.34
2023-06-19T07:29:17.781Z,100460.00
2023-06-19T07:32:20.839Z,100452.16
2023-06-19T07:35:23.354Z,100461.22
2023-06-19T07:38:28.111Z,100460.13
2023-06-19T07:41:32.791Z,100473.75
2023-06-19T07:44:35.263Z,100462.97
2023-06-19T07:47:40.018Z,100474.97
2023-06-19T07:50:42.646Z,100480.75
2023-06-19T07:53:45.156Z,100473.63
2023-06-19T07:56:47.662Z,100471.81
2023-06-19T07:59:51.351Z,100479.22
2023-06-19T08:02:54.062Z,100453.59
2023-06-19T08:05:58.732Z,100449.00
2023-06-19T08:09:01.259Z,100449.84
2023-06-19T08:12:04.114Z,100458.25
2023-06-19T08:15:07.494Z,100463.06
2023-06-19T08:18:10.020Z,100464.69
2023-06-19T08:21:13.713Z,100470.28
2023-06-19T08:24:16.460Z,100472.84
2023-06-19T08:27:18.948Z,100466.25
2023-06-19T08:30:23.970Z,100456.84
2023-06-19T08:33:28.861Z,100449.59
2023-06-19T08:36:34.266Z,100470.47
2023-06-19T08:39:40.539Z,100453.03
2023-06-19T08:42:44.739Z,100462.59
2023-06-19T08:46:19.230Z,100473.84
2023-06-19T08:49:25.066Z,100473.44
2023-06-19T08:52:27.681Z,100455.72
2023-06-19T08:55:30.194Z,100468.72
2023-06-19T08:58:33.859Z,100465.03
2023-06-19T09:01:36.351Z,100464.78
2023-06-19T09:04:38.823Z,100461.47
2023-06-19T09:07:41.644Z,100454.88
2023-06-19T09:10:54.925Z,100453.22
2023-06-19T09:13:58.828Z,100464.19
2023-06-19T09:17:03.108Z,100462.03
2023-06-19T09:20:10.077Z,100448.50
2023-06-19T09:23:13.416Z,100442.22
2023-06-19T09:26:20.233Z,100447.66
2023-06-19T09:29:27.322Z,100454.88
2023-06-19T09:32:30.016Z,100442.97
2023-06-19T09:35:34.817Z,100457.88
2023-06-19T09:38:40.137Z,100449.06
2023-06-19T09:41:52.142Z,100452.25
2023-06-19T09:45:00.060Z,100440.66
2023-06-19T09:48:02.676Z,100452.56
2023-06-19T09:51:32.082Z,100450.88
2023-06-19T09:54:36.020Z,100447.03
2023-06-19T09:57:39.687Z,100434.56
2023-06-19T10:00:42.225Z,100436.94
2023-06-19T10:03:44.788Z,100444.97
2023-06-19T10:06:50.742Z,100443.44
2023-06-19T10:10:01.652Z,100415.72
2023-06-19T10:13:15.145Z,100430.06
2023-06-19T10:16:22.989Z,100418.66
2023-06-19T10:19:28.685Z,100417.66
2023-06-19T10:22:33.430Z,100400.91
2023-06-19T10:25:39.416Z,100404.28
2023-06-19T10:28:48.696Z,100404.91
2023-06-19T10:31:51.478Z,100405.53
2023-06-19T10:34:54.008Z,100418.41
2023-06-19T10:37:56.623Z,100412.34
2023-06-19T10:41:01.636Z,100409.69
2023-06-19T10:44:06.394Z,100397.31
2023-06-19T10:47:08.996Z,100415.00
2023-06-19T10:50:15.341Z,100393.53
2023-06-19T10:53:28.431Z,100400.56
2023-06-19T10:56:31.077Z,100404.44
2023-06-19T10:59:36.419Z,100399.50
2023-06-19T11:02:40.960Z,100392.56
2023-06-19T11:05:47.759Z,100386.75
2023-06-19T11:08:53.889Z,100377.38
2023-06-19T11:11:59.781Z,100395.59
2023-06-19T11:15:06.559Z,100393.03
2023-06-19T11:18:11.589Z,100390.53
2023-06-19T11:21:16.302Z,100395.75
2023-06-19T11:24:20.388Z,100383.63
2023-06-19T11:27:29.728Z,100385.75
2023-06-19T11:30:35.481Z,100372.81
2023-06-19T11:33:40.505Z,100360.13
2023-06-19T11:36:43.691Z,100377.84
2023-06-19T11:39:50.861Z,100341.94
2023-06-19T11:42:56.823Z,100350.69
2023-06-19T11:46:11.687Z,100351.50
2023-06-19T11:49:18.033Z,100351.75
2023-06-19T11:52:25.438Z,100361.25
2023-06-19T11:55:30.267Z,100364.22
2023-06-19T11:58:32.751Z,100357.41
2023-06-19T12:01:38.332Z,100363.50
2023-06-19T12:04:42.974Z,100367.78
2023-06-19T12:07:48.727Z,100365.66
2023-06-19T12:10:51.219Z,100365.56
2023-06-19T12:13:58.860Z,100350.50
2023-06-19T12:17:01.475Z,100358.16
2023-06-19T12:20:07.124Z,100348.94
2023-06-19T12:23:09.621Z,100341.69
2023-06-19T12:26:12.132Z,100321.19
2023-06-19T12:29:16.838Z,100337.72
2023-06-19T12:32:19.620Z,100314.16
2023-06-19T12:35:25.105Z,100328.38
2023-06-19T12:38:27.866Z,100336.91
2023-06-19T12:41:30.425Z,100324.69
2023-06-19T12:44:32.958Z,100336.91
2023-06-19T12:47:37.907Z,100326.13
2023-06-19T12:50:40.436Z,100334.63
2023-06-19T12:53:42.904Z,100333.34
2023-06-19T12:56:46.253Z,100333.63
2023-06-19T12:59:48.766Z,100333.91
2023-06-19T13:02:51.456Z,100322.84
2023-06-19T13:05:56.177Z,100325.66
2023-06-19T13:08:58.966Z,100313.16
2023-06-19T13:12:01.434Z,100309.00
2023-06-19T13:15:04.235Z,100324.66
2023-06-19T13:18:06.884Z,100314.31
2023-06-19T13:21:09.400Z,100310.22
2023-06-19T13:24:12.352Z,100312.91
2023-06-19T13:27:14.979Z,100300.75
2023-06-19T13:30:19.548Z,100293.06
2023-06-19T13:33:22.099Z,100280.50
2023-06-19T13:36:25.106Z,100289.50
2023-06-19T13:39:27.627Z,100278.00
2023-06-19T13:42:32.959Z,100259.38
2023-06-19T13:45:35.888Z,100283.56
2023-06-19T13:48:38.536Z,100276.47
2023-06-19T13:51:41.020Z,100278.81
2023-06-19T13:54:43.609Z,100262.81
2023-06-19T13:57:46.406Z,100282.38
2023-06-19T14:00:49.174Z,100269.31
2023-06-19T14:03:51.664Z,100280.28
2023-06-19T14:06:56.022Z,100283.38
2023-06-19T14:09:58.675Z,100264.75
2023-06-19T14:13:01.146Z,100250.31
2023-06-19T14:16:03.987Z,100257.72
2023-06-19T14:19:08.673Z,100271.91
2023-06-19T14:22:11.214Z,100258.06
2023-06-19T14:25:14.082Z,100256.00
2023-06-19T14:28:19.042Z,100271.22
2023-06-19T14:31:21.541Z,100266.47
2023-06-19T14:34:24.077Z,100269.91
2023-06-19T14:37:27.165Z,100268.94
2023-06-19T14:40:29.680Z,100246.00
2023-06-19T14:43:34.182Z,100269.13
2023-06-19T14:46:40.823Z,100268.66
2023-06-19T14:49:45.741Z,100269.59
2023-06-19T14:52:50.804Z,100274.47
2023-06-19T14:55:53.379Z,100248.75
2023-06-19T14:58:56.189Z,100257.75
2023-06-19T15:02:00.987Z,100268.88
2023-06-19T15:05:07.011Z,100264.56
2023-06-19T15:08:11.351Z,100247.63
2023-06-19T15:11:13.886Z,100256.34
2023-06-19T15:14:18.350Z,100266.47
2023-06-19T15:17:23.058Z,100249.66
2023-06-19T15:20:25.681Z,100260.94
2023-06-19T15:23:28.408Z,100257.50
2023-06-19T15:26:31.164Z,100242.75
2023-06-19T15:29:33.660Z,100260.22
2023-06-19T15:32:41.009Z,100230.38
2023-06-19T15:35:46.251Z,100253.59
2023-06-19T15:38:49.241Z,100258.38
2023-06-19T15:41:51.792Z,100259.91
2023-06-19T15:44:54.283Z,100238.63
2023-06-19T15:47:59.198Z,100238.59
2023-06-19T15:51:04.087Z,100236.84
2023-06-19T15:54:08.828Z,100224.94
2023-06-19T15:57:13.542Z,100249.25
2023-06-19T16:00:16.471Z,100256.25
2023-06-19T16:03:21.764Z,100246.81
2023-06-19T16:06:24.401Z,100239.75
2023-06-19T16:09:27.799Z,100246.56
2023-06-19T16:12:32.659Z,100249.81
2023-06-19T16:15:36.217Z,100251.06
2023-06-19T16:18:38.715Z,100250.41
2023-06-19T16:21:43.426Z,100235.97
2023-06-19T16:24:48.020Z,100235.09
2023-06-19T16:27:53.293Z,100250.09
2023-06-19T16:30:55.769Z,100234.81
2023-06-19T16:33:58.529Z,100237.66
2023-06-19T16:37:01.025Z,100251.31
2023-06-19T16:40:06.402Z,100240.31
2023-06-19T16:43:11.151Z,100228.78
2023-06-19T16:46:13.662Z,100244.56
2023-06-19T16:49:18.122Z,100265.44
2023-06-19T16:52:21.130Z,100258.78
2023-06-19T16:55:25.673Z,100251.38
2023-06-19T16:58:30.349Z,100242.91
2023-06-19T17:01:33.185Z,100246.53
2023-06-19T17:04:35.751Z,100262.53
2023-06-19T17:07:40.604Z,100260.41
2023-06-19T17:10:43.194Z,100264.94
2023-06-19T17:13:48.154Z,100249.81
2023-06-19T17:16:52.178Z,100242.69
2023-06-19T17:19:56.894Z,100271.81
2023-06-19T17:22:59.555Z,100254.28
2023-06-19T17:26:02.358Z,100276.56
2023-06-19T17:29:05.653Z,100277.25
2023-06-19T17:32:11.342Z,100257.28
2023-06-19T17:35:16.621Z,100272.09
2023-06-19T17:38:19.089Z,100249.81
2023-06-19T17:41:21.645Z,100266.28
2023-06-19T17:44:31.456Z,100261.13
2023-06-19T17:47:33.940Z,100270.09
2023-06-19T17:50:36.573Z,100269.34
2023-06-19T17:53:42.210Z,100277.91
2023-06-19T17:56:45.733Z,100268.84
2023-06-19T17:59:48.924Z,100274.53
2023-06-19T18:02:51.418Z,100265.00
2023-06-19T18:05:54.000Z,100267.59
2023-06-19T18:08:56.454Z,100264.19
2023-06-19T18:11:58.980Z,100277.72
2023-06-19T18:15:01.448Z,100258.38
2023-06-19T18:18:07.294Z,100283.25
2023-06-19T18:21:09.813Z,100285.69
2023-06-19T18:24:12.393Z,100290.00
2023-06-19T18:27:15.523Z,100263.88
2023-06-19T18:30:20.328Z,100276.00
2023-06-19T18:33:25.107Z,100277.66
2023-06-19T18:36:28.093Z,100261.00
2023-06-19T18:39:30.815Z,100288.50
2023-06-19T18:42:35.556Z,100305.84
2023-06-19T18:45:38.194Z,100308.34
2023-06-19T18:48:42.792Z,100287.53
2023-06-19T18:51:45.275Z,100285.19
2023-06-19T18:54:48.876Z,100312.38
2023-06-19T18:57:53.582Z,100325.31
2023-06-19T19:00:56.611Z,100330.28
2023-06-19T19:03:59.129Z,100318.53
2023-06-19T19:07:03.729Z,100320.97
2023-06-19T19:10:10.885Z,100346.06
2023-06-19T19:13:15.652Z,100352.31
2023-06-19T19:16:20.769Z,100359.63
2023-06-19T19:19:28.430Z,100343.19
2023-06-19T19:22:33.844Z,100363.91
2023-06-19T19:25:39.998Z,100334.09
2023-06-19T19:28:42.525Z,100339.47
2023-06-19T19:31:45.098Z,100366.00
2023-06-19T19:34:49.195Z,100334.25
2023-06-19T19:37:53.957Z,100348.91
2023-06-19T19:40:58.577Z,100340.91
2023-06-19T19:44:01.090Z,100343.63
2023-06-19T19:47:03.798Z,100334.13
2023-06-19T19:50:11.646Z,100334.44
2023-06-19T19:53:16.415Z,100332.22
2023-06-19T19:56:19.734Z,100344.06
2023-06-19T19:59:22.896Z,100349.22
2023-06-19T20:02:25.519Z,100365.25
2023-06-19T20:05:28.105Z,100351.00
2023-06-19T20:08:30.644Z,100358.94
2023-06-19T20:11:34.030Z,100365.00
2023-06-19T20:14:36.518Z,100361.53
2023-06-19T20:17:41.235Z,100349.56
2023-06-19T20:20:43.788Z,100343.16
2023-06-19T20:23:46.314Z,100359.97
2023-06-19T20:26:48.814Z,100358.31
2023-06-19T20:29:51.277Z,100349.78
2023-06-19T20:32:56.446Z,100336.47
2023-06-19T20:36:02.060Z,100347.78
2023-06-19T20:39:06.704Z,100358.66
2023-06-19T20:42:09.249Z,100360.06
2023-06-19T20:45:11.783Z,100336.25
2023-06-19T20:48:14.514Z,100343.34
2023-06-19T20:51:16.961Z,100363.28
2023-06-19T20:54:21.737Z,100345.56
2023-06-19T20:57:24.312Z,100343.91
2023-06-19T21:00:29.053Z,100356.56
2023-06-19T21:03:32.417Z,100363.69
2023-06-19T21:06:34.980Z,100368.28
2023-06-19T21:09:37.526Z,100369.81
2023-06-19T21:12:40.268Z,100383.59
2023-06-19T21:15:42.745Z,100366.06
2023-06-19T21:18:45.227Z,100385.69
2023-06-19T21:21:47.741Z,100382.47
2023-06-19T21:24:50.238Z,100385.25
2023-06-19T21:27:52.796Z,100360.56
2023-06-19T21:30:57.418Z,100359.75
2023-06-19T21:34:00.011Z,100377.03
2023-06-19T21:37:02.560Z,100371.69
2023-06-19T21:40:10.845Z,100381.03
2023-06-19T21:43:13.407Z,100352.59
2023-06-19T21:46:16.026Z,100357.59
2023-06-19T21:49:20.653Z,100373.13
2023-06-19T21:52:26.670Z,100358.03
2023-06-19T21:55:29.167Z,100369.63
2023-06-19T21:58:33.994Z,100395.19
2023-06-19T22:01:37.290Z,100383.78
2023-06-19T22:04:39.751Z,100373.47
2023-06-19T22:07:42.257Z,100395.94
2023-06-19T22:10:44.813Z,100394.91
2023-06-19T22:13:47.447Z,100403.22
2023-06-19T22:16:49.955Z,100400.91
2023-06-19T22:19:54.674Z,100383.53
2023-06-19T22:23:01.786Z,100410.97
2023-06-19T22:26:04.342Z,100378.38
2023-06-19T22:29:07.560Z,100385.44
2023-06-19T22:32:10.068Z,100410.69
2023-06-19T22:35:14.635Z,100395.59
2023-06-19T22:38:17.742Z,100394.66
2023-06-19T22:41:20.435Z,100417.72
2023-06-19T22:44:22.960Z,100410.78
2023-06-19T22:47:25.576Z,100398.72
2023-06-19T22:50:28.120Z,100419.91
2023-06-19T22:53:32.847Z,100394.03
2023-06-19T22:56:35.308Z,100426.72
2023-06-19T22:59:40.112Z,100427.44
2023-06-19T23:02:44.509Z,100414.03
2023-06-19T23:05:47.052Z,100402.56
2023-06-19T23:08:52.749Z,100420.03
2023-06-19T23:11:57.364Z,100437.47
2023-06-19T23:14:59.867Z,100413.19
2023-06-19T23:18:08.052Z,100419.53
2023-06-19T23:21:10.737Z,100427.06
2023-06-19T23:24:13.309Z,100430.28
2023-06-19T23:27:16.940Z,100449.78
2023-06-19T23:30:21.511Z,100447.25
2023-06-19T23:33:26.978Z,100449.06
2023-06-19T23:37:44.596Z,100445.00
2023-06-19T23:40:47.012Z,100423.22
2023-06-19T23:43:49.874Z,100420.25
2023-06-19T23:46:52.294Z,100426.03
2023-06-19T23:49:54.698Z,100450.78
2023-06-19T23:52:57.099Z,100441.81
2023-06-19T23:55:59.872Z,100418.88
2023-06-19T23:59:02.253Z,100444.72
